Caravelle, Martinique

1:16 AM AST on February 27, 2015 (GMT -0400)
IFLAMBOY2 | Change Station
CLOSE
Current Station
Personal Weather Station
Location: Gros Morne, FLAMBOYANT
Elevation: 866 ft
Nearby Weather Stations

Elev 866 ft 14.71 °N, 61.02 °W | Updated 12 seconds ago

Partly Cloudy
Partly Cloudy
73.4 °F
Feels Like 77 °F
N
0.0
Wind Variable Wind from North
Gusts 0.0 mph

Today
High -- | Low -- °F
--% Chance of Precip.
Yesterday
High -- | Low -- °F
Precip. -- in
6:21 AM 6:10 PM
Waxing Gibbous, 65% visible
Pressure 30.01 in
Visibility 6.2 miles
Clouds Few 2200 ft
Heat Index 77 °F
Dew Point 54 °F
Humidity 51%
Rainfall 0.00 in
Snow Depth Not available.
UV 0 out of 12
Pollen Not available.
Air Quality Not available.
Flu Activity Not available.
METAR TFFF 270500Z AUTO 05010KT 9999 FEW022/// ///TCU 25/21 Q1016

More Conditions Fewer Conditions

Pressure 30.01 in
Visibility 6.2 miles
Clouds Few 2200 ft
Heat Index 77 °F
Dew Point 54 °F
Humidity 51%
Rainfall 0.00 in
Snow Depth Not available.
UV 0 out of 12
Pollen Not available.
Air Quality Not available.
Flu Activity Not available.
METAR TFFF 270500Z AUTO 05010KT 9999 FEW022/// ///TCU 25/21 Q1016

More Conditions Fewer Conditions

10-Day Weather Forecast

Almanac

Astronomy

Feb. 27, 2015 Rise Set
Actual Time
Civil Twilight
Nautical Twilight
Astronomical Twilight
Moon
Length of Visible Light
Length of Day
Tomorrow will be .
, % of the Moon is Illuminated

Today's Extremes

Country Highs Country Lows

Community

WunderPhotos

Upload Photos

1,800,637 photos uploaded!

WunderBlogs® & News

Nearby

Air Quality

  Air Quality AQ Index Pollutant
Not available.

Snow Depth

Station Depth Elevation

Earthquake Activity

City Distance Mag. Time & Date
Minimum magnitude displayed is 2.5.

Coastal Water Temperatures

Place Temperature

Nearby Weather Stations